createdAt,value
2017-09-28T00:02:14.628Z,79.87
2017-09-28T00:04:42.107Z,79.95
2017-09-28T00:07:09.585Z,80.01
2017-09-28T00:09:37.083Z,80.07
2017-09-28T00:12:04.545Z,80.05
2017-09-28T00:14:32.120Z,80.12
2017-09-28T00:16:59.603Z,80.21
2017-09-28T00:19:27.072Z,80.19
2017-09-28T00:21:54.884Z,80.31
2017-09-28T00:24:22.370Z,80.38
2017-09-28T00:26:49.894Z,80.56
2017-09-28T00:29:17.375Z,80.69
2017-09-28T00:31:44.845Z,80.86
2017-09-28T00:34:12.326Z,80.82
2017-09-28T00:36:39.787Z,80.87
2017-09-28T00:39:07.270Z,80.84
2017-09-28T00:41:34.728Z,80.86
2017-09-28T00:44:02.207Z,80.90
2017-09-28T00:46:29.749Z,81.02
2017-09-28T00:48:57.246Z,81.31
2017-09-28T00:51:25.470Z,81.47
2017-09-28T00:53:52.951Z,81.49
2017-09-28T00:56:20.510Z,81.56
2017-09-28T00:58:47.994Z,81.49
2017-09-28T01:01:15.478Z,81.46
2017-09-28T01:03:42.949Z,81.54
2017-09-28T01:06:10.447Z,81.51
2017-09-28T01:08:37.937Z,81.54
2017-09-28T01:11:05.417Z,81.52
2017-09-28T01:13:32.904Z,81.66
2017-09-28T01:16:00.371Z,81.64
2017-09-28T01:18:27.853Z,81.66
2017-09-28T01:20:55.318Z,81.60
2017-09-28T01:23:22.857Z,81.67
2017-09-28T01:25:50.334Z,81.71
2017-09-28T01:30:51.540Z,82.01
2017-09-28T01:33:19.008Z,81.93
2017-09-28T01:35:46.627Z,81.92
2017-09-28T01:38:14.111Z,81.89
2017-09-28T01:40:41.579Z,81.95
2017-09-28T01:43:09.102Z,81.99
2017-09-28T01:45:36.573Z,82.18
2017-09-28T01:48:04.047Z,82.34
2017-09-28T01:50:31.537Z,82.48
2017-09-28T01:52:59.016Z,82.55
2017-09-28T01:55:26.500Z,82.79
2017-09-28T01:57:53.968Z,82.88
2017-09-28T02:00:21.439Z,83.05
2017-09-28T02:02:48.905Z,83.17
2017-09-28T02:05:16.690Z,83.13
2017-09-28T02:07:44.159Z,83.14
2017-09-28T02:10:11.627Z,83.12
2017-09-28T02:12:39.106Z,83.03
2017-09-28T02:15:06.573Z,83.04
2017-09-28T02:17:34.039Z,82.99
2017-09-28T02:20:01.519Z,82.97
2017-09-28T02:22:28.990Z,82.93
2017-09-28T02:24:56.850Z,82.83
2017-09-28T02:27:24.407Z,82.82
2017-09-28T02:29:51.983Z,82.76
2017-09-28T02:32:19.482Z,82.76
2017-09-28T02:34:46.954Z,82.72
2017-09-28T02:37:14.449Z,82.69
2017-09-28T02:39:41.928Z,82.73
2017-09-28T02:42:09.395Z,82.77
2017-09-28T02:44:36.915Z,82.76
2017-09-28T02:47:04.386Z,82.69
2017-09-28T02:49:31.870Z,82.64
2017-09-28T02:51:59.351Z,82.58
2017-09-28T02:54:26.855Z,82.55
2017-09-28T02:56:54.351Z,82.53
2017-09-28T02:59:21.828Z,82.47
2017-09-28T03:01:49.303Z,82.50
2017-09-28T03:04:16.803Z,82.55
2017-09-28T03:06:44.305Z,82.59
2017-09-28T03:09:11.770Z,82.61
2017-09-28T03:11:39.235Z,82.62
2017-09-28T03:14:06.821Z,82.62
2017-09-28T03:16:34.297Z,82.70
2017-09-28T03:19:02.751Z,82.72
2017-09-28T03:21:30.225Z,82.81
2017-09-28T03:23:57.969Z,82.82
2017-09-28T03:26:25.434Z,82.83
2017-09-28T03:28:52.909Z,82.80
2017-09-28T03:31:20.440Z,82.82
2017-09-28T03:33:48.121Z,82.82
2017-09-28T03:36:15.594Z,82.83
2017-09-28T03:38:43.071Z,82.81
2017-09-28T03:41:10.551Z,82.82
2017-09-28T03:43:38.141Z,82.78
2017-09-28T03:46:05.623Z,82.77
2017-09-28T03:48:33.097Z,82.67
2017-09-28T03:51:00.587Z,82.77
2017-09-28T03:53:28.064Z,82.73
2017-09-28T03:55:55.538Z,82.68
2017-09-28T03:58:23.032Z,82.76
2017-09-28T04:00:50.505Z,82.94
2017-09-28T04:03:18.108Z,82.98
2017-09-28T04:05:45.584Z,83.03
2017-09-28T04:08:13.064Z,82.97
2017-09-28T04:10:40.542Z,83.00
2017-09-28T04:13:08.007Z,83.10
2017-09-28T04:15:35.494Z,83.11
2017-09-28T04:18:03.064Z,83.13
2017-09-28T04:20:30.544Z,83.10
2017-09-28T04:22:58.066Z,83.14
2017-09-28T04:25:25.523Z,83.23
2017-09-28T04:27:53.020Z,83.25
2017-09-28T04:30:20.495Z,83.28
2017-09-28T04:32:47.966Z,83.36
2017-09-28T04:35:15.452Z,83.34
2017-09-28T04:37:43.035Z,83.35
2017-09-28T04:40:10.523Z,83.39
2017-09-28T04:42:37.987Z,83.40
2017-09-28T04:45:05.473Z,83.44
2017-09-28T04:47:32.973Z,83.48
2017-09-28T04:50:00.508Z,83.50
2017-09-28T04:52:27.990Z,83.53
2017-09-28T04:54:55.487Z,83.52
2017-09-28T04:57:22.975Z,83.53
2017-09-28T04:59:50.460Z,83.56
2017-09-28T05:02:17.960Z,83.59
2017-09-28T05:04:45.451Z,83.60
2017-09-28T05:07:12.937Z,83.63
2017-09-28T05:09:40.580Z,83.75
2017-09-28T05:12:08.153Z,83.70
2017-09-28T05:14:35.642Z,83.73
2017-09-28T05:17:03.122Z,83.73
2017-09-28T05:19:30.619Z,83.78
2017-09-28T05:21:58.160Z,83.75
2017-09-28T05:24:25.740Z,83.75
2017-09-28T05:26:53.229Z,83.73
2017-09-28T05:29:20.747Z,83.96
2017-09-28T05:31:48.430Z,84.04
2017-09-28T05:34:15.928Z,83.95
2017-09-28T05:36:43.402Z,83.85
2017-09-28T05:39:10.899Z,83.89
2017-09-28T05:41:38.398Z,83.89
2017-09-28T05:44:05.881Z,83.91
2017-09-28T05:46:33.454Z,83.95
2017-09-28T05:49:00.931Z,84.17
2017-09-28T05:51:28.492Z,84.01
2017-09-28T05:53:55.982Z,83.89
2017-09-28T05:56:23.463Z,83.80
2017-09-28T05:58:50.932Z,83.79
2017-09-28T06:01:18.421Z,83.77
2017-09-28T06:03:45.911Z,83.77
2017-09-28T06:06:13.380Z,83.76
2017-09-28T06:08:40.859Z,83.74
2017-09-28T06:11:08.339Z,83.71
2017-09-28T06:13:35.846Z,83.64
2017-09-28T06:16:17.983Z,83.56
2017-09-28T06:18:45.665Z,83.42
2017-09-28T06:21:13.213Z,83.30
2017-09-28T06:23:40.706Z,83.18
2017-09-28T06:26:08.199Z,83.06
2017-09-28T06:28:35.686Z,83.05
2017-09-28T06:31:04.261Z,83.18
2017-09-28T06:33:31.722Z,83.10
2017-09-28T06:35:59.187Z,82.87
2017-09-28T06:38:26.667Z,82.80
2017-09-28T06:40:54.148Z,82.71
2017-09-28T06:43:21.637Z,82.69
2017-09-28T06:45:49.099Z,82.57
2017-09-28T06:48:16.601Z,82.47
2017-09-28T06:50:44.128Z,82.37
2017-09-28T06:53:11.606Z,82.25
2017-09-28T06:55:39.071Z,82.20
2017-09-28T06:58:06.566Z,82.12
2017-09-28T07:00:34.037Z,81.82
2017-09-28T07:03:01.503Z,81.57
2017-09-28T07:05:28.998Z,81.65
2017-09-28T07:07:56.468Z,81.77
2017-09-28T07:10:23.955Z,81.93
2017-09-28T07:12:51.429Z,81.96
2017-09-28T07:15:18.938Z,81.92
2017-09-28T07:17:46.403Z,81.90
2017-09-28T07:20:13.878Z,82.13
2017-09-28T07:22:41.346Z,82.16
2017-09-28T07:25:09.142Z,82.17
2017-09-28T07:27:36.632Z,82.00
2017-09-28T07:30:04.122Z,81.95
2017-09-28T07:32:31.625Z,81.87
2017-09-28T07:34:59.097Z,81.78
2017-09-28T07:37:26.582Z,81.59
2017-09-28T07:39:54.110Z,81.44
2017-09-28T07:42:21.676Z,81.29
2017-09-28T07:44:49.150Z,81.04
2017-09-28T07:47:16.631Z,80.70
2017-09-28T07:49:44.133Z,80.32
2017-09-28T07:52:11.608Z,80.00
2017-09-28T07:54:39.095Z,79.90
2017-09-28T07:57:06.564Z,79.81
2017-09-28T07:59:34.063Z,79.67
2017-09-28T08:02:01.533Z,79.59
2017-09-28T08:04:29.024Z,79.58
2017-09-28T08:06:56.496Z,79.40
2017-09-28T08:09:23.973Z,79.25
2017-09-28T08:11:51.467Z,79.12
2017-09-28T08:14:18.990Z,79.20
2017-09-28T08:16:46.472Z,79.04
2017-09-28T08:19:13.962Z,78.95
2017-09-28T08:21:41.453Z,78.97
2017-09-28T08:24:08.989Z,78.91
2017-09-28T08:26:36.463Z,78.65
2017-09-28T08:29:03.933Z,78.50
2017-09-28T08:31:31.419Z,78.43
2017-09-28T08:33:58.892Z,78.23
2017-09-28T08:36:26.378Z,78.10
2017-09-28T08:38:53.851Z,78.01
2017-09-28T08:41:21.358Z,78.11
2017-09-28T08:43:48.856Z,78.23
2017-09-28T08:46:16.338Z,78.20
2017-09-28T08:48:43.821Z,77.64
2017-09-28T08:51:11.310Z,77.17
2017-09-28T08:53:38.832Z,76.96
2017-09-28T08:56:06.302Z,76.86
2017-09-28T08:58:33.792Z,76.73
2017-09-28T09:01:01.277Z,76.50
2017-09-28T09:03:28.766Z,76.37
2017-09-28T09:05:56.261Z,76.04
2017-09-28T09:08:23.773Z,75.98
2017-09-28T09:10:51.239Z,75.74
2017-09-28T09:13:18.704Z,75.73
2017-09-28T09:15:46.277Z,75.66
2017-09-28T09:18:13.730Z,75.58
2017-09-28T09:20:41.220Z,75.67
2017-09-28T09:23:08.699Z,75.49
2017-09-28T09:25:36.183Z,74.99
2017-09-28T09:28:03.667Z,74.80
2017-09-28T09:30:31.214Z,74.72
2017-09-28T09:32:58.723Z,74.73
2017-09-28T09:35:26.273Z,74.96
2017-09-28T09:37:53.757Z,74.93
2017-09-28T09:40:21.253Z,74.87
2017-09-28T09:42:48.753Z,74.67
2017-09-28T09:45:16.223Z,74.44
2017-09-28T09:47:43.731Z,74.50
2017-09-28T09:50:11.220Z,72.22
2017-09-28T09:52:38.714Z,71.95
2017-09-28T09:55:06.189Z,71.12
2017-09-28T09:57:33.667Z,70.38
2017-09-28T10:00:01.158Z,70.09
2017-09-28T10:02:28.629Z,70.08
2017-09-28T10:04:56.128Z,70.54
2017-09-28T10:07:28.130Z,70.94
2017-09-28T10:10:13.746Z,71.02
2017-09-28T10:12:46.287Z,70.29
2017-09-28T10:15:33.195Z,70.70
2017-09-28T10:18:00.675Z,70.74
2017-09-28T10:20:28.182Z,70.31
2017-09-28T10:22:55.685Z,69.05
2017-09-28T10:25:23.147Z,69.20
2017-09-28T10:27:50.632Z,69.39
2017-09-28T10:30:18.142Z,69.25
2017-09-28T10:32:45.648Z,69.62
2017-09-28T10:35:13.134Z,69.06
2017-09-28T10:37:40.618Z,67.60
2017-09-28T10:40:08.086Z,66.53
2017-09-28T10:42:35.628Z,65.78
2017-09-28T10:45:03.117Z,66.15
2017-09-28T10:47:30.595Z,66.74
2017-09-28T10:49:58.088Z,66.27
2017-09-28T10:52:25.577Z,65.29
2017-09-28T10:54:53.051Z,65.54
2017-09-28T10:57:20.593Z,65.60
2017-09-28T10:59:48.089Z,65.34
2017-09-28T11:02:15.646Z,64.99
2017-09-28T11:04:43.155Z,64.28
2017-09-28T11:07:10.631Z,63.21
2017-09-28T11:09:38.128Z,61.28
2017-09-28T11:12:05.606Z,59.72
2017-09-28T11:14:33.078Z,58.70
2017-09-28T11:17:00.548Z,57.08
2017-09-28T11:19:28.015Z,54.97
2017-09-28T11:21:55.499Z,53.72
2017-09-28T11:24:22.971Z,52.63
2017-09-28T11:26:50.463Z,53.38
2017-09-28T11:29:17.943Z,52.67
2017-09-28T11:31:45.416Z,53.18
2017-09-28T11:34:12.904Z,51.65
2017-09-28T11:36:40.368Z,51.81
2017-09-28T11:39:07.885Z,50.98
2017-09-28T11:41:35.357Z,51.24
2017-09-28T11:44:02.871Z,52.81
2017-09-28T11:46:30.349Z,54.54
2017-09-28T11:48:57.823Z,54.39
2017-09-28T11:51:25.307Z,55.08
2017-09-28T11:53:52.857Z,56.77
2017-09-28T11:56:20.415Z,53.35
2017-09-28T11:58:47.895Z,53.50
2017-09-28T12:01:15.358Z,54.62
2017-09-28T12:03:42.848Z,55.04
2017-09-28T12:06:10.327Z,55.02
2017-09-28T12:08:37.949Z,55.12
2017-09-28T12:11:05.413Z,53.39
2017-09-28T12:13:32.914Z,51.91
2017-09-28T12:16:00.399Z,51.74
2017-09-28T12:18:27.962Z,51.99
2017-09-28T12:20:55.437Z,51.92
2017-09-28T12:23:22.911Z,53.40
2017-09-28T12:25:50.388Z,54.57
2017-09-28T12:28:17.977Z,55.38
2017-09-28T12:30:45.470Z,55.49
2017-09-28T12:33:12.959Z,55.37
2017-09-28T12:35:40.439Z,55.64
2017-09-28T12:38:07.931Z,56.15
2017-09-28T12:40:35.397Z,56.76
2017-09-28T12:43:02.899Z,55.54
2017-09-28T12:45:30.363Z,55.54
2017-09-28T12:47:57.945Z,56.58
2017-09-28T12:50:25.420Z,56.40
2017-09-28T12:52:52.912Z,54.43
2017-09-28T12:55:20.406Z,54.24
2017-09-28T12:57:48.014Z,55.00
2017-09-28T13:00:16.042Z,55.57
2017-09-28T13:02:43.523Z,54.50
2017-09-28T13:05:10.991Z,54.04
2017-09-28T13:07:38.486Z,54.62
2017-09-28T13:10:05.948Z,55.91
2017-09-28T13:12:33.442Z,55.56
2017-09-28T13:15:00.923Z,55.75
2017-09-28T13:17:28.439Z,56.27
2017-09-28T13:19:55.919Z,56.39
2017-09-28T13:22:23.397Z,56.34
2017-09-28T13:24:50.905Z,56.08
2017-09-28T13:27:18.385Z,56.98
2017-09-28T13:29:45.882Z,57.36
2017-09-28T13:32:13.363Z,57.67
2017-09-28T13:34:40.951Z,57.90
2017-09-28T13:37:08.435Z,59.53
2017-09-28T13:39:35.970Z,60.57
2017-09-28T13:42:03.475Z,61.51
2017-09-28T13:47:04.894Z,59.80
2017-09-28T13:49:32.454Z,60.01
2017-09-28T13:51:59.923Z,60.34
2017-09-28T13:54:27.399Z,60.62
2017-09-28T13:56:54.879Z,61.24
2017-09-28T13:59:22.384Z,61.91
2017-09-28T14:01:50.157Z,62.99
2017-09-28T14:04:17.657Z,63.71
2017-09-28T14:06:45.167Z,64.12
2017-09-28T14:09:12.691Z,64.77
2017-09-28T14:11:40.179Z,65.24
2017-09-28T14:14:07.650Z,65.07
2017-09-28T14:16:35.147Z,65.00
2017-09-28T14:19:02.627Z,63.64
2017-09-28T14:21:30.114Z,62.82
2017-09-28T14:23:57.593Z,62.49
2017-09-28T14:26:25.073Z,62.38
2017-09-28T14:28:52.580Z,62.67
2017-09-28T14:31:20.158Z,62.91
2017-09-28T14:33:47.672Z,63.23
2017-09-28T14:36:15.149Z,63.91
2017-09-28T14:38:42.675Z,64.42
2017-09-28T14:41:10.184Z,64.37
2017-09-28T14:43:37.671Z,64.26
2017-09-28T14:46:05.164Z,63.95
2017-09-28T14:48:32.638Z,64.43
2017-09-28T14:51:00.185Z,64.78
2017-09-28T14:53:27.656Z,64.35
2017-09-28T14:55:55.130Z,64.06
2017-09-28T14:58:22.609Z,63.92
2017-09-28T15:00:50.136Z,64.28
2017-09-28T15:03:17.701Z,64.54
2017-09-28T15:05:45.284Z,64.83
2017-09-28T15:08:12.778Z,64.72
2017-09-28T15:10:40.253Z,64.64
2017-09-28T15:13:07.734Z,64.55
2017-09-28T15:15:35.241Z,65.01
2017-09-28T15:18:02.886Z,65.34
2017-09-28T15:20:30.387Z,65.14
2017-09-28T15:22:57.884Z,64.71
2017-09-28T15:25:25.359Z,64.96
2017-09-28T15:27:54.813Z,64.95
2017-09-28T15:30:22.540Z,64.70
2017-09-28T15:32:50.097Z,64.58
2017-09-28T15:35:17.627Z,64.98
2017-09-28T15:37:45.259Z,65.73
2017-09-28T15:40:12.988Z,65.58
2017-09-28T15:42:40.771Z,65.41
2017-09-28T15:45:08.353Z,65.42
2017-09-28T15:47:35.881Z,65.55
2017-09-28T15:50:03.636Z,65.77
2017-09-28T15:52:31.177Z,65.99
2017-09-28T15:54:58.753Z,66.41
2017-09-28T15:57:26.585Z,66.39
2017-09-28T15:59:54.420Z,66.28
2017-09-28T16:02:22.255Z,66.64
2017-09-28T16:04:49.972Z,66.85
2017-09-28T16:07:20.473Z,66.72
2017-09-28T16:09:48.147Z,66.80
2017-09-28T16:12:15.643Z,67.03
2017-09-28T16:14:43.139Z,66.97
2017-09-28T16:17:10.676Z,67.39
2017-09-28T16:19:38.167Z,68.05
2017-09-28T16:22:05.652Z,68.59
2017-09-28T16:24:33.207Z,69.06
2017-09-28T16:27:00.671Z,68.79
2017-09-28T16:29:28.528Z,68.30
2017-09-28T16:31:56.094Z,68.41
2017-09-28T16:34:23.656Z,69.14
2017-09-28T16:36:51.129Z,69.86
2017-09-28T16:39:18.670Z,69.74
2017-09-28T16:41:46.540Z,69.27
2017-09-28T16:44:14.007Z,69.13
2017-09-28T16:46:41.497Z,69.72
2017-09-28T16:49:09.004Z,70.36
2017-09-28T16:51:36.511Z,70.25
2017-09-28T16:54:03.997Z,69.96
2017-09-28T16:56:31.473Z,70.39
2017-09-28T16:58:58.965Z,70.75
2017-09-28T17:01:26.547Z,70.37
2017-09-28T17:03:54.042Z,70.36
2017-09-28T17:06:21.508Z,70.87
2017-09-28T17:08:49.010Z,71.32
2017-09-28T17:11:16.541Z,71.68
2017-09-28T17:13:44.032Z,71.58
2017-09-28T17:16:11.528Z,71.54
2017-09-28T17:18:39.037Z,71.92
2017-09-28T17:21:06.517Z,72.07
2017-09-28T17:23:34.015Z,71.95
2017-09-28T17:26:01.519Z,72.44
2017-09-28T17:28:28.985Z,72.52
2017-09-28T17:30:56.452Z,72.82
2017-09-28T17:33:23.946Z,72.63
2017-09-28T17:35:51.443Z,72.96
2017-09-28T17:38:18.940Z,73.05
2017-09-28T17:40:46.399Z,72.93
2017-09-28T17:43:13.921Z,72.33
2017-09-28T17:45:41.394Z,72.04
2017-09-28T17:48:08.912Z,72.47
2017-09-28T17:50:36.405Z,73.01
2017-09-28T17:53:04.008Z,73.35
2017-09-28T17:55:31.785Z,73.61
2017-09-28T17:57:59.260Z,73.79
2017-09-28T18:00:26.851Z,73.93
2017-09-28T18:02:54.351Z,73.53
2017-09-28T18:05:21.850Z,73.76
2017-09-28T18:07:49.392Z,73.74
2017-09-28T18:10:16.871Z,73.37
2017-09-28T18:12:44.360Z,73.21
2017-09-28T18:15:11.835Z,73.31
2017-09-28T18:17:40.255Z,73.57
2017-09-28T18:20:08.318Z,73.45
2017-09-28T18:22:35.810Z,73.71
2017-09-28T18:25:04.457Z,74.24
2017-09-28T18:27:32.012Z,74.77
2017-09-28T18:29:59.516Z,75.05
2017-09-28T18:32:26.998Z,75.18
2017-09-28T18:34:54.483Z,75.20
2017-09-28T18:37:22.028Z,75.10
2017-09-28T18:39:49.490Z,75.13
2017-09-28T18:42:17.607Z,75.26
2017-09-28T18:44:45.113Z,75.21
2017-09-28T18:47:12.601Z,75.24
2017-09-28T18:49:40.099Z,75.32
2017-09-28T18:52:08.580Z,74.98
2017-09-28T18:54:36.081Z,74.44
2017-09-28T18:57:03.621Z,74.30
2017-09-28T18:59:31.140Z,73.77
2017-09-28T19:01:58.640Z,73.61
2017-09-28T19:04:26.187Z,73.80
2017-09-28T19:06:53.658Z,74.36
2017-09-28T19:09:21.222Z,74.46
2017-09-28T19:11:48.703Z,74.80
2017-09-28T19:14:16.199Z,74.42
2017-09-28T19:16:43.686Z,74.14
2017-09-28T19:19:11.178Z,74.13
2017-09-28T19:21:38.720Z,74.15
2017-09-28T19:24:06.199Z,73.99
2017-09-28T19:26:33.694Z,74.11
2017-09-28T19:29:01.199Z,74.46
2017-09-28T19:31:28.674Z,74.67
2017-09-28T19:33:56.161Z,74.83
2017-09-28T19:36:23.616Z,74.89
2017-09-28T19:38:51.121Z,75.16
2017-09-28T19:41:18.622Z,75.13
2017-09-28T19:43:46.452Z,75.26
2017-09-28T19:46:13.920Z,75.26
2017-09-28T19:48:41.407Z,75.39
2017-09-28T19:51:08.897Z,75.30
2017-09-28T19:53:36.375Z,75.46
2017-09-28T19:56:04.254Z,75.66
2017-09-28T19:58:31.733Z,75.77
2017-09-28T20:00:59.203Z,75.80
2017-09-28T20:03:26.699Z,75.72
2017-09-28T20:05:54.177Z,75.80
2017-09-28T20:08:21.688Z,75.81
2017-09-28T20:10:49.184Z,75.72
2017-09-28T20:13:16.674Z,75.89
2017-09-28T20:15:44.188Z,76.13
2017-09-28T20:18:11.663Z,76.00
2017-09-28T20:20:39.163Z,76.08
2017-09-28T20:23:06.641Z,76.04
2017-09-28T20:25:34.145Z,76.17
2017-09-28T20:28:01.628Z,76.31
2017-09-28T20:30:29.166Z,76.42
2017-09-28T20:32:57.019Z,76.23
2017-09-28T20:35:24.520Z,76.12
2017-09-28T20:37:52.013Z,76.03
2017-09-28T20:40:19.485Z,76.25
2017-09-28T20:42:47.051Z,76.26
2017-09-28T20:45:14.544Z,76.32
2017-09-28T20:47:42.022Z,76.41
2017-09-28T20:50:09.562Z,76.44
2017-09-28T20:52:37.028Z,76.22
2017-09-28T20:55:04.531Z,76.51
2017-09-28T20:57:31.996Z,76.57
2017-09-28T20:59:59.498Z,76.61
2017-09-28T21:02:27.001Z,76.70
2017-09-28T21:04:54.810Z,76.70
2017-09-28T21:07:22.497Z,76.69
2017-09-28T21:09:49.978Z,76.74
2017-09-28T21:12:17.559Z,76.80
2017-09-28T21:14:45.039Z,76.73
2017-09-28T21:17:12.505Z,76.95
2017-09-28T21:19:39.985Z,77.27
2017-09-28T21:22:07.480Z,77.18
2017-09-28T21:24:35.020Z,77.21
2017-09-28T21:27:02.487Z,77.22
2017-09-28T21:29:30.263Z,77.21
2017-09-28T21:31:57.751Z,77.28
2017-09-28T21:34:25.279Z,77.32
2017-09-28T21:36:52.759Z,77.31
2017-09-28T21:39:20.389Z,77.33
2017-09-28T21:41:47.888Z,77.18
2017-09-28T21:44:15.380Z,77.38
2017-09-28T21:46:43.207Z,77.59
2017-09-28T21:49:10.748Z,77.53
2017-09-28T21:51:38.219Z,77.67
2017-09-28T21:54:05.728Z,77.89
2017-09-28T21:56:33.212Z,78.17
2017-09-28T21:59:00.780Z,78.49
2017-09-28T22:01:28.259Z,78.70
2017-09-28T22:03:55.732Z,78.77
2017-09-28T22:06:23.260Z,78.95
2017-09-28T22:08:50.761Z,79.04
2017-09-28T22:11:18.224Z,79.24
2017-09-28T22:13:45.707Z,79.26
2017-09-28T22:16:13.280Z,79.29
2017-09-28T22:18:40.782Z,79.32
2017-09-28T22:21:08.299Z,79.40
2017-09-28T22:23:36.072Z,79.47
2017-09-28T22:26:03.574Z,79.47
2017-09-28T22:28:31.039Z,79.54
2017-09-28T22:30:58.524Z,79.63
2017-09-28T22:33:26.028Z,79.65
2017-09-28T22:35:53.531Z,79.67
2017-09-28T22:38:21.120Z,79.65
2017-09-28T22:40:48.610Z,79.65
2017-09-28T22:43:16.084Z,79.63
2017-09-28T22:45:43.588Z,79.56
2017-09-28T22:48:11.107Z,79.47
2017-09-28T22:50:38.613Z,79.44
2017-09-28T22:53:06.139Z,79.38
2017-09-28T22:55:33.619Z,79.31
2017-09-28T22:58:01.105Z,79.40
2017-09-28T23:00:28.563Z,79.44
2017-09-28T23:02:56.053Z,79.51
2017-09-28T23:05:23.527Z,79.50
2017-09-28T23:07:51.116Z,79.47
2017-09-28T23:10:18.610Z,79.41
2017-09-28T23:12:46.091Z,79.40
2017-09-28T23:15:13.695Z,79.40
2017-09-28T23:17:41.250Z,79.38
2017-09-28T23:20:08.727Z,79.36
2017-09-28T23:22:36.208Z,79.35
2017-09-28T23:25:03.679Z,79.33
2017-09-28T23:27:31.155Z,79.35
2017-09-28T23:29:58.623Z,79.31
2017-09-28T23:32:26.106Z,79.40
2017-09-28T23:34:53.584Z,79.62
2017-09-28T23:37:21.079Z,79.84
2017-09-28T23:39:48.659Z,79.90
2017-09-28T23:42:16.226Z,79.92
2017-09-28T23:44:43.711Z,79.88
2017-09-28T23:47:11.201Z,79.82
2017-09-28T23:49:38.678Z,79.79
2017-09-28T23:52:06.194Z,79.77
2017-09-28T23:54:33.735Z,79.75
2017-09-28T23:57:01.218Z,79.72
2017-09-28T23:59:28.686Z,79.71
